createdAt,value
2022-07-25T04:53:15.768Z,14.20
2022-07-25T04:55:48.424Z,13.67
2022-07-25T04:58:20.153Z,12.63
2022-07-25T05:00:51.655Z,11.55
2022-07-25T05:03:23.927Z,11.15
2022-07-25T05:05:54.808Z,11.38
2022-07-25T05:08:26.711Z,10.77
2022-07-25T05:10:58.728Z,10.85
2022-07-25T05:13:33.608Z,9.93
2022-07-25T05:16:08.663Z,9.85
2022-07-25T05:18:39.370Z,11.02
2022-07-25T05:21:16.651Z,12.43
2022-07-25T05:23:47.267Z,11.03
2022-07-25T05:26:18.718Z,10.55
2022-07-25T05:28:52.943Z,11.38
2022-07-25T05:31:25.472Z,10.60
2022-07-25T05:33:56.672Z,12.85
2022-07-25T05:36:27.427Z,12.68
2022-07-25T05:38:58.366Z,12.05
2022-07-25T05:41:30.261Z,12.15
2022-07-25T05:44:01.773Z,11.90
2022-07-25T05:46:35.045Z,12.23
2022-07-25T05:49:06.118Z,11.47
2022-07-25T05:51:37.356Z,11.48
2022-07-25T05:54:08.676Z,10.90
2022-07-25T05:56:39.772Z,10.77
2022-07-25T05:59:11.110Z,10.70
2022-07-25T06:01:42.121Z,10.48
2022-07-25T06:04:13.448Z,10.68
2022-07-25T06:06:43.891Z,11.60
2022-07-25T06:09:15.349Z,7.88
2022-07-25T06:11:54.540Z,7.13
2022-07-25T06:14:32.009Z,5.75
2022-07-25T06:17:02.575Z,6.03
2022-07-25T06:19:33.373Z,5.80
2022-07-25T06:22:04.282Z,5.80
2022-07-25T06:24:34.803Z,5.28
2022-07-25T06:27:04.889Z,3.80
2022-07-25T06:29:35.318Z,4.00
2022-07-25T06:32:05.923Z,4.00
2022-07-25T06:34:36.394Z,4.00
2022-07-25T06:37:07.430Z,3.83
2022-07-25T06:39:45.807Z,3.40
2022-07-25T06:42:16.663Z,3.63
2022-07-25T06:44:47.105Z,2.80
2022-07-25T06:47:17.350Z,1.92
2022-07-25T06:49:54.037Z,1.98
2022-07-25T06:52:24.244Z,1.95
2022-07-25T06:54:55.590Z,1.73
2022-07-25T06:57:26.067Z,2.13
2022-07-25T06:59:57.142Z,1.60
2022-07-25T07:02:27.582Z,1.83
2022-07-25T07:04:58.000Z,2.13
2022-07-25T07:07:27.755Z,2.58
2022-07-25T07:09:58.585Z,3.35
2022-07-25T07:12:33.427Z,3.25
2022-07-25T07:15:07.345Z,2.72
2022-07-25T07:17:38.110Z,4.60
2022-07-25T07:20:10.260Z,3.10
2022-07-25T07:22:50.127Z,2.00
2022-07-25T07:25:23.054Z,2.45
2022-07-25T07:27:54.381Z,2.50
2022-07-25T07:30:37.631Z,2.33
2022-07-25T07:33:16.143Z,1.60
2022-07-25T07:35:48.259Z,1.40
2022-07-25T07:38:22.523Z,1.48
2022-07-25T07:40:52.863Z,0.90
2022-07-25T07:43:29.419Z,1.52
2022-07-25T07:46:04.639Z,1.00
2022-07-25T07:48:39.921Z,1.48
2022-07-25T07:51:11.676Z,1.90
2022-07-25T07:54:01.871Z,1.80
2022-07-25T07:56:40.469Z,9.23
2022-07-25T07:59:11.712Z,2.30
2022-07-25T08:01:42.482Z,3.00
2022-07-25T08:04:13.271Z,3.50
2022-07-25T08:06:46.925Z,3.08
2022-07-25T08:09:19.712Z,2.85
2022-07-25T08:11:51.149Z,3.63
2022-07-25T08:14:21.860Z,2.10
2022-07-25T08:16:54.420Z,1.73
2022-07-25T08:19:25.560Z,1.63
2022-07-25T08:21:58.388Z,3.60
2022-07-25T08:24:28.904Z,1.67
2022-07-25T08:26:59.945Z,1.77
2022-07-25T08:29:30.015Z,4.57
2022-07-25T08:32:01.907Z,6.15
2022-07-25T08:34:32.543Z,3.03
2022-07-25T08:37:03.935Z,1.60
2022-07-25T08:39:34.745Z,3.47
2022-07-25T08:42:10.824Z,3.72
2022-07-25T08:44:46.010Z,3.85
2022-07-25T08:47:18.291Z,3.00
2022-07-25T08:49:49.313Z,2.85
2022-07-25T08:52:23.413Z,4.03
2022-07-25T08:54:54.712Z,3.27
2022-07-25T08:57:27.525Z,2.35
2022-07-25T09:00:02.286Z,2.43
2022-07-25T09:02:34.830Z,2.30
2022-07-25T09:05:05.087Z,2.58
2022-07-25T09:07:41.375Z,2.28
2022-07-25T09:10:19.827Z,2.75
2022-07-25T09:13:02.936Z,2.13
2022-07-25T09:15:36.966Z,2.45
2022-07-25T09:18:15.965Z,3.50
2022-07-25T09:21:04.772Z,2.60
2022-07-25T09:23:40.619Z,2.60
2022-07-25T09:26:16.802Z,3.47
2022-07-25T09:28:49.891Z,3.53
2022-07-25T09:31:24.314Z,4.00
2022-07-25T09:34:04.000Z,3.22
2022-07-25T09:36:36.659Z,2.83
2022-07-25T09:39:09.310Z,2.70
2022-07-25T09:41:42.820Z,3.10
2022-07-25T09:44:20.420Z,3.65
2022-07-25T09:46:50.911Z,3.45
2022-07-25T09:49:21.855Z,3.00
2022-07-25T09:51:54.121Z,2.90
2022-07-25T09:54:27.002Z,2.85
2022-07-25T09:56:57.475Z,3.03
2022-07-25T09:59:29.749Z,3.30
2022-07-25T10:02:13.680Z,3.75
2022-07-25T10:05:06.904Z,5.82
2022-07-25T10:07:43.908Z,7.20
2022-07-25T10:10:30.808Z,6.50
2022-07-25T10:13:22.993Z,6.80
2022-07-25T10:15:58.332Z,8.63
2022-07-25T10:18:31.084Z,9.18
2022-07-25T10:21:25.485Z,3.67
2022-07-25T10:24:05.760Z,3.15
2022-07-25T10:26:41.563Z,5.30
2022-07-25T10:29:15.913Z,4.30
2022-07-25T10:31:51.422Z,3.17
2022-07-25T10:34:33.450Z,2.70
2022-07-25T10:37:17.834Z,2.50
2022-07-25T10:39:51.992Z,2.25
2022-07-25T10:42:28.641Z,2.40
2022-07-25T10:44:59.235Z,2.28
2022-07-25T10:47:31.057Z,2.08
2022-07-25T10:50:34.698Z,2.53
2022-07-25T10:53:02.880Z,2.10
2022-07-25T10:55:37.765Z,2.38
2022-07-25T10:58:18.441Z,2.50
2022-07-25T11:00:49.261Z,2.40
2022-07-25T11:03:20.429Z,2.40
2022-07-25T11:05:51.267Z,2.60
2022-07-25T11:08:32.478Z,2.50
2022-07-25T11:11:05.490Z,2.70
2022-07-25T11:13:44.736Z,2.93
2022-07-25T11:16:19.674Z,2.80
2022-07-25T11:18:51.851Z,3.80
2022-07-25T11:21:24.371Z,3.20
2022-07-25T11:23:55.449Z,4.22
2022-07-25T11:26:25.934Z,7.75
2022-07-25T11:28:57.371Z,11.43
2022-07-25T11:31:29.475Z,7.70
2022-07-25T11:34:00.041Z,9.05
2022-07-25T11:36:33.351Z,7.28
2022-07-25T11:39:04.835Z,7.30
2022-07-25T11:41:35.576Z,13.23
2022-07-25T11:44:05.875Z,6.00
2022-07-25T11:46:46.820Z,4.53
2022-07-25T11:49:17.415Z,11.02
2022-07-25T11:51:48.683Z,10.35
2022-07-25T11:54:21.172Z,4.63
2022-07-25T11:56:52.354Z,4.60
2022-07-25T11:59:23.512Z,3.65
2022-07-25T12:01:54.419Z,4.80
2022-07-25T12:04:25.406Z,4.13
2022-07-25T12:07:07.714Z,4.57
2022-07-25T12:09:38.831Z,3.05
2022-07-25T12:12:10.499Z,3.83
2022-07-25T12:14:47.211Z,4.20
2022-07-25T12:17:17.620Z,4.05
2022-07-25T12:19:50.709Z,3.30
2022-07-25T12:22:20.931Z,4.88
2022-07-25T12:24:53.092Z,4.30
2022-07-25T12:27:24.702Z,3.70
2022-07-25T12:29:55.447Z,3.20
2022-07-25T12:32:25.644Z,5.40
2022-07-25T12:34:55.852Z,3.80
2022-07-25T12:37:27.965Z,3.38
2022-07-25T12:40:00.432Z,3.10
2022-07-25T12:42:30.632Z,2.90
2022-07-25T12:45:01.377Z,3.35
2022-07-25T12:47:32.313Z,3.20
2022-07-25T12:50:02.734Z,3.00
2022-07-25T12:52:33.387Z,3.95
2022-07-25T12:55:04.380Z,3.50
2022-07-25T12:57:35.781Z,3.88
2022-07-25T13:00:13.877Z,4.00
2022-07-25T13:02:45.099Z,4.30
2022-07-25T13:05:16.653Z,4.80
2022-07-25T13:07:47.101Z,5.32
2022-07-25T13:10:18.560Z,7.10
2022-07-25T13:12:48.945Z,6.47
2022-07-25T13:15:22.570Z,5.70
2022-07-25T13:17:53.879Z,5.45
2022-07-25T13:20:25.655Z,6.20
2022-07-25T13:22:56.122Z,6.07
2022-07-25T13:25:27.337Z,5.82
2022-07-25T13:27:57.513Z,5.88
2022-07-25T13:30:27.830Z,6.55
2022-07-25T13:32:58.598Z,6.47
2022-07-25T13:35:35.059Z,6.33
2022-07-25T13:38:12.851Z,5.63
2022-07-25T13:40:46.423Z,7.15
2022-07-25T13:43:17.008Z,4.88
2022-07-25T13:45:48.822Z,4.32
2022-07-25T13:48:29.637Z,4.90
2022-07-25T13:51:01.474Z,4.93
2022-07-25T13:53:31.851Z,5.07
2022-07-25T13:56:03.289Z,5.18
2022-07-25T13:58:34.088Z,5.57
2022-07-25T14:01:06.309Z,8.43
2022-07-25T14:03:38.388Z,2.70
2022-07-25T14:06:16.474Z,3.22
2022-07-25T14:08:46.583Z,4.28
2022-07-25T14:11:18.007Z,5.07
2022-07-25T14:13:50.898Z,3.00
2022-07-25T14:16:22.210Z,4.27
2022-07-25T14:18:52.749Z,6.07
2022-07-25T14:21:23.963Z,5.40
2022-07-25T14:23:56.940Z,8.73
2022-07-25T14:26:30.235Z,5.25
2022-07-25T14:29:00.977Z,4.97
2022-07-25T14:31:31.368Z,4.90
2022-07-25T14:34:01.923Z,2.83
2022-07-25T14:36:33.455Z,3.50
2022-07-25T14:39:05.344Z,4.07
2022-07-25T14:41:36.466Z,2.53
2022-07-25T14:44:07.073Z,3.63
2022-07-25T14:46:39.080Z,3.25
2022-07-25T14:49:10.615Z,3.47
2022-07-25T14:51:42.671Z,4.10
2022-07-25T14:54:19.092Z,4.38
2022-07-25T14:56:49.919Z,4.38
2022-07-25T14:59:22.615Z,5.00
2022-07-25T15:01:54.356Z,4.85
2022-07-25T15:04:27.280Z,4.80
2022-07-25T15:06:58.106Z,4.75
2022-07-25T15:09:28.983Z,5.50
2022-07-25T15:11:59.899Z,5.03
2022-07-25T15:14:31.928Z,5.95
2022-07-25T15:17:02.212Z,5.17
2022-07-25T15:19:32.745Z,5.18
2022-07-25T15:22:03.901Z,5.43
2022-07-25T15:24:44.470Z,5.53
2022-07-25T15:27:24.753Z,4.93
2022-07-25T15:29:55.468Z,4.95
2022-07-25T15:32:27.151Z,5.18
2022-07-25T15:34:59.061Z,5.38
2022-07-25T15:37:31.445Z,6.85
2022-07-25T15:40:02.123Z,5.00
2022-07-25T15:42:33.902Z,5.30
2022-07-25T15:45:31.565Z,5.68
2022-07-25T15:47:55.497Z,5.03
2022-07-25T15:50:26.291Z,4.85
2022-07-25T15:52:57.964Z,5.13
2022-07-25T15:55:32.225Z,5.75
2022-07-25T15:58:03.467Z,6.68
2022-07-25T16:00:33.833Z,4.85
2022-07-25T16:03:05.746Z,5.38
2022-07-25T16:05:37.793Z,5.78
2022-07-25T16:08:12.860Z,6.20
2022-07-25T16:10:43.637Z,5.50
2022-07-25T16:13:14.441Z,5.07
2022-07-25T16:15:44.647Z,4.65
2022-07-25T16:18:15.466Z,4.30
2022-07-25T16:20:45.400Z,4.30
2022-07-25T16:23:19.905Z,5.03
2022-07-25T16:25:50.614Z,3.90
2022-07-25T16:28:22.431Z,4.15
2022-07-25T16:30:52.745Z,4.40
2022-07-25T16:33:24.765Z,4.10
2022-07-25T16:35:55.771Z,4.27
2022-07-25T16:38:26.152Z,3.30
2022-07-25T16:40:57.512Z,3.20
2022-07-25T16:43:28.781Z,3.40
2022-07-25T16:46:00.897Z,3.63
2022-07-25T16:48:31.467Z,4.10
2022-07-25T16:51:02.331Z,4.20
2022-07-25T16:53:34.877Z,4.63
2022-07-25T16:56:05.914Z,4.93
2022-07-25T16:58:36.949Z,4.43
2022-07-25T17:01:07.465Z,4.20
2022-07-25T17:03:38.501Z,4.28
2022-07-25T17:06:09.340Z,4.00
2022-07-25T17:08:40.416Z,3.88
2022-07-25T17:11:11.081Z,4.13
2022-07-25T17:13:41.265Z,3.90
2022-07-25T17:16:13.275Z,4.05
2022-07-25T17:18:44.745Z,3.80
2022-07-25T17:21:19.221Z,4.37
2022-07-25T17:23:52.975Z,4.18
2022-07-25T17:26:23.216Z,4.03
2022-07-25T17:28:55.621Z,3.90
2022-07-25T17:31:28.928Z,3.88
2022-07-25T17:34:01.876Z,3.60
2022-07-25T17:36:31.805Z,4.28
2022-07-25T17:39:02.193Z,3.85
2022-07-25T17:41:35.875Z,4.00
2022-07-25T17:44:11.966Z,4.15
2022-07-25T17:46:45.913Z,4.10
2022-07-25T17:49:17.059Z,4.67
2022-07-25T17:51:48.282Z,3.97
2022-07-25T17:54:19.357Z,4.40
2022-07-25T17:56:50.783Z,4.43
2022-07-25T17:59:22.105Z,4.28
2022-07-25T18:01:52.532Z,4.32
2022-07-25T18:04:25.965Z,4.10
2022-07-25T18:06:56.194Z,4.40
2022-07-25T18:09:28.614Z,4.32
2022-07-25T18:12:01.687Z,4.53
2022-07-25T18:14:33.730Z,3.75
2022-07-25T18:17:06.011Z,4.30
2022-07-25T18:19:36.458Z,4.40
2022-07-25T18:22:07.530Z,4.20
2022-07-25T18:24:38.004Z,4.00
2022-07-25T18:27:09.390Z,3.70
2022-07-25T18:29:42.249Z,3.90
2022-07-25T18:32:12.961Z,3.50
2022-07-25T18:34:43.809Z,3.67
2022-07-25T18:37:14.371Z,3.60
2022-07-25T18:39:47.374Z,3.63
2022-07-25T18:42:17.750Z,3.60
2022-07-25T18:44:48.481Z,3.50
2022-07-25T18:47:19.830Z,3.28
2022-07-25T18:49:52.365Z,3.70
2022-07-25T18:52:23.974Z,3.63
2022-07-25T18:54:55.242Z,3.85
2022-07-25T18:57:25.763Z,3.40
2022-07-25T19:00:00.905Z,3.00
2022-07-25T19:02:33.546Z,2.73
2022-07-25T19:05:03.961Z,2.30
2022-07-25T19:07:36.852Z,2.13
2022-07-25T19:10:09.457Z,2.30
2022-07-25T19:12:40.521Z,2.33
2022-07-25T19:15:12.906Z,2.10
2022-07-25T19:17:44.282Z,2.05
2022-07-25T19:20:14.894Z,1.60
2022-07-25T19:22:45.449Z,1.75
2022-07-25T19:25:17.196Z,1.57
2022-07-25T19:27:47.833Z,1.60
2022-07-25T19:30:20.282Z,1.50
2022-07-25T19:32:50.827Z,1.63
